Time;durP1;ratioP1;P1;durP2;ratioP2;P2;SDS_P1;SDS_P2;PMS_P1;PMS_P2;Temp;Humidity;BMP_temperature;BMP_pressure;BME280_temperature;BME280_humidity;BME280_pressure;Samples;Min_cycle;Max_cycle;Signal;HPM_P1;HPM_P2
2022/06/16 00:01:09;;;;;;;2.85;0.50;;;15.80;99.90;;;;;;5044303;28;20045;-66
2022/06/16 00:03:36;;;;;;;1.20;0.40;;;15.90;99.90;;;;;;5032471;28;20053;-66
2022/06/16 00:06:04;;;;;;;4.72;0.52;;;15.90;99.90;;;;;;5016223;28;20042;-66
2022/06/16 00:08:31;;;;;;;2.47;0.40;;;16.00;99.90;;;;;;5049575;28;20059;-66
2022/06/16 00:11:16;;;;;;;3.55;0.85;;;16.10;99.90;;;;;;5040820;28;20091;-66
2022/06/16 00:13:45;;;;;;;2.40;0.40;;;16.20;99.90;;;;;;5044708;28;20504;-66
2022/06/16 00:16:12;;;;;;;5.53;1.02;;;16.30;99.90;;;;;;5039582;28;20032;-66
2022/06/16 00:18:41;;;;;;;1.77;0.50;;;16.30;99.90;;;;;;5013236;28;20106;-66
2022/06/16 00:21:09;;;;;;;2.25;0.38;;;16.30;99.90;;;;;;5024953;28;20553;-66
2022/06/16 00:23:36;;;;;;;2.80;0.60;;;16.40;99.90;;;;;;5014153;28;20030;-66
2022/06/16 00:26:04;;;;;;;1.98;0.43;;;16.60;99.90;;;;;;5014747;28;20026;-66
2022/06/16 00:28:31;;;;;;;1.60;0.50;;;16.60;99.90;;;;;;5035102;28;20451;-65
2022/06/16 00:31:04;;;;;;;2.50;0.50;;;16.60;99.90;;;;;;5033359;28;20025;-66
2022/06/16 00:33:32;;;;;;;0.80;0.43;;;16.60;99.90;;;;;;5022559;28;20080;-65
2022/06/16 00:36:00;;;;;;;1.40;0.32;;;16.70;99.90;;;;;;5032337;28;20038;-65
2022/06/16 00:38:27;;;;;;;2.25;0.63;;;16.60;99.90;;;;;;5040541;28;20144;-65
2022/06/16 00:40:55;;;;;;;3.38;0.38;;;16.90;99.90;;;;;;5015587;28;20029;-65
2022/06/16 00:43:22;;;;;;;6.25;0.50;;;17.00;99.90;;;;;;5022326;28;20041;-66
2022/06/16 00:45:53;;;;;;;3.22;0.47;;;17.20;99.90;;;;;;5017974;28;20053;-65
2022/06/16 00:48:34;;;;;;;1.90;0.63;;;17.20;99.90;;;;;;5010944;28;20109;-66
2022/06/16 00:51:34;;;;;;;0.82;0.32;;;17.30;99.90;;;;;;5017233;28;20359;-65
2022/06/16 00:54:38;;;;;;;4.60;0.70;;;17.50;99.90;;;;;;5035909;28;20084;-66
2022/06/16 00:57:19;;;;;;;1.15;0.30;;;17.50;99.90;;;;;;5021389;28;20038;-66
2022/06/16 00:59:47;;;;;;;1.58;0.32;;;17.30;99.90;;;;;;5017006;28;20041;-66
2022/06/16 01:02:15;;;;;;;2.15;0.57;;;17.30;99.90;;;;;;5017466;28;20106;-66
2022/06/16 01:04:52;;;;;;;1.98;0.20;;;17.30;99.90;;;;;;5016990;28;20080;-65
2022/06/16 01:07:32;;;;;;;2.60;0.60;;;17.40;99.90;;;;;;5018370;28;20022;-65
2022/06/16 01:10:01;;;;;;;1.83;0.40;;;17.50;99.90;;;;;;5028453;28;20041;-66
2022/06/16 01:15:50;;;;;;;0.82;0.20;;;17.60;99.90;;;;;;5019914;28;20520;-66
2022/06/16 01:18:38;;;;;;;2.42;0.45;;;17.70;99.90;;;;;;5023583;28;20085;-66
2022/06/16 01:21:33;;;;;;;1.27;0.30;;;17.70;99.90;;;;;;5022559;28;20026;-67
2022/06/16 01:24:25;;;;;;;2.00;1.02;;;17.80;99.90;;;;;;5023336;28;20128;-66
2022/06/16 01:27:21;;;;;;;2.40;0.20;;;17.90;99.90;;;;;;5020817;28;20389;-66
2022/06/16 01:29:54;;;;;;;0.75;0.38;;;18.20;99.90;;;;;;5025687;28;20061;-66
2022/06/16 01:32:46;;;;;;;0.93;0.20;;;18.10;99.90;;;;;;5023156;28;20029;-67
2022/06/16 01:35:33;;;;;;;2.20;0.38;;;18.20;99.70;;;;;;5028220;28;20046;-66
2022/06/16 01:38:14;;;;;;;1.15;0.30;;;18.10;99.80;;;;;;5015112;28;20419;-65
2022/06/16 01:40:41;;;;;;;1.30;0.20;;;18.10;99.60;;;;;;5014619;28;20025;-65
2022/06/16 01:43:23;;;;;;;2.35;0.30;;;18.20;99.40;;;;;;5024072;28;20083;-66
2022/06/16 01:45:53;;;;;;;1.58;0.32;;;18.30;98.70;;;;;;5020450;28;20029;-66
2022/06/16 01:48:23;;;;;;;0.45;0.10;;;18.40;99.10;;;;;;5015804;28;20486;-65
2022/06/16 01:51:02;;;;;;;0.85;0.20;;;18.50;99.50;;;;;;5017028;28;20430;-66
2022/06/16 01:54:02;;;;;;;5.20;0.43;;;18.50;99.30;;;;;;5035878;28;20478;-65
2022/06/16 01:56:47;;;;;;;0.88;0.17;;;18.70;99.10;;;;;;5025876;28;20077;-65
2022/06/16 01:59:22;;;;;;;1.92;0.32;;;18.50;98.60;;;;;;5019347;28;20032;-65
2022/06/16 02:01:57;;;;;;;1.92;0.38;;;18.60;98.70;;;;;;5034174;28;20030;-65
2022/06/16 02:04:43;;;;;;;0.90;0.30;;;18.60;98.30;;;;;;5035199;28;20510;-66
2022/06/16 02:07:26;;;;;;;0.65;0.20;;;18.80;98.50;;;;;;5021271;28;20034;-65
2022/06/16 02:09:59;;;;;;;1.00;0.63;;;18.60;98.20;;;;;;5015051;28;20038;-66
2022/06/16 02:13:15;;;;;;;0.50;0.20;;;18.80;98.40;;;;;;5019093;28;20100;-66
2022/06/16 02:15:46;;;;;;;1.00;0.22;;;19.10;97.80;;;;;;5014350;28;20124;-66
2022/06/16 02:18:18;;;;;;;1.00;0.20;;;19.00;97.90;;;;;;5015769;28;20375;-66
2022/06/16 02:20:54;;;;;;;0.70;0.30;;;19.50;97.20;;;;;;5015359;28;20029;-65
2022/06/16 02:23:22;;;;;;;1.35;0.30;;;19.70;97.00;;;;;;5015418;28;20398;-66
2022/06/16 02:25:53;;;;;;;1.15;0.20;;;20.40;96.50;;;;;;5015451;28;20502;-66
2022/06/16 02:28:21;;;;;;;0.45;0.10;;;20.40;96.00;;;;;;5026244;28;20172;-66
2022/06/16 02:31:13;;;;;;;0.57;0.10;;;20.70;97.20;;;;;;5017784;28;20030;-66
2022/06/16 02:33:53;;;;;;;1.85;0.25;;;21.10;95.70;;;;;;5023440;28;20548;-66
2022/06/16 02:36:46;;;;;;;4.53;0.30;;;20.90;95.60;;;;;;5029918;28;20079;-66
2022/06/16 02:39:43;;;;;;;0.22;0.10;;;20.80;95.50;;;;;;5033587;28;20041;-66
2022/06/16 02:42:13;;;;;;;4.13;0.30;;;20.30;96.00;;;;;;5020089;28;20686;-66
2022/06/16 02:45:18;;;;;;;0.73;0.10;;;21.10;96.30;;;;;;5024605;28;20041;-66
2022/06/16 02:48:01;;;;;;;1.92;0.20;;;21.00;95.90;;;;;;5014336;28;20414;-67
2022/06/16 02:50:49;;;;;;;3.30;0.68;;;20.60;95.70;;;;;;5022140;28;20051;-66
2022/06/16 02:54:09;;;;;;;2.75;0.40;;;20.50;96.30;;;;;;5017982;28;20026;-66
2022/06/16 02:57:04;;;;;;;1.67;0.10;;;21.00;95.70;;;;;;5014964;28;20030;-66
2022/06/16 02:59:50;;;;;;;3.42;0.40;;;20.10;96.30;;;;;;5021913;28;20025;-65
2022/06/16 03:02:24;;;;;;;0.85;0.20;;;19.80;97.00;;;;;;5018790;28;20029;-66
2022/06/16 03:04:56;;;;;;;0.55;0.20;;;19.20;97.20;;;;;;5027184;28;20018;-66
2022/06/16 03:07:25;;;;;;;0.73;0.10;;;19.10;97.30;;;;;;5023243;28;20060;-65
2022/06/16 03:09:53;;;;;;;0.47;0.25;;;19.10;97.70;;;;;;5027840;28;20057;-66
2022/06/16 03:12:21;;;;;;;0.95;0.22;;;19.50;98.10;;;;;;5023477;28;20027;-66
2022/06/16 03:14:48;;;;;;;2.40;0.30;;;19.90;97.00;;;;;;5033333;28;20022;-66
2022/06/16 03:17:17;;;;;;;0.57;0.10;;;20.10;97.10;;;;;;5030942;28;20030;-67
2022/06/16 03:19:44;;;;;;;1.52;0.35;;;20.60;97.80;;;;;;5024416;28;20041;-65
2022/06/16 03:22:12;;;;;;;2.17;0.40;;;20.40;96.70;;;;;;5026030;28;20034;-65
2022/06/16 03:24:40;;;;;;;1.42;0.30;;;20.10;97.10;;;;;;5022605;28;20033;-65
2022/06/16 03:27:08;;;;;;;3.10;0.40;;;20.50;96.70;;;;;;5017007;28;20040;-66
2022/06/16 03:29:35;;;;;;;1.55;0.10;;;20.50;97.30;;;;;;5032270;28;20121;-66
2022/06/16 03:32:03;;;;;;;3.10;0.70;;;19.80;97.10;;;;;;5020606;28;20033;-66
2022/06/16 03:34:31;;;;;;;1.67;0.43;;;20.20;98.70;;;;;;5013326;28;20037;-66
2022/06/16 03:36:58;;;;;;;1.48;0.20;;;20.00;97.30;;;;;;5016585;28;20026;-66
2022/06/16 03:39:26;;;;;;;1.42;0.30;;;19.90;97.10;;;;;;5013087;28;20026;-66
2022/06/16 03:41:53;;;;;;;1.35;0.30;;;19.70;97.60;;;;;;5015675;28;20034;-66
2022/06/16 03:44:20;;;;;;;4.00;0.45;;;20.20;97.30;;;;;;5014192;28;20030;-66
2022/06/16 03:46:48;;;;;;;0.68;0.20;;;20.50;97.60;;;;;;5024642;28;20034;-66
2022/06/16 03:49:15;;;;;;;3.65;0.30;;;20.50;97.10;;;;;;5033801;28;20030;-66
2022/06/16 03:51:42;;;;;;;1.98;0.20;;;20.10;97.70;;;;;;5030350;28;20500;-66
2022/06/16 03:54:10;;;;;;;3.45;0.28;;;20.20;97.40;;;;;;5016533;28;20046;-66
2022/06/16 03:56:37;;;;;;;2.80;0.32;;;20.50;97.50;;;;;;5016825;28;20108;-66
2022/06/16 03:59:04;;;;;;;0.80;0.25;;;20.30;97.10;;;;;;5013724;28;20501;-66
2022/06/16 04:01:31;;;;;;;2.08;0.17;;;19.90;97.40;;;;;;5013400;28;20101;-66
2022/06/16 04:04:01;;;;;;;3.35;0.13;;;19.70;97.50;;;;;;5019737;28;20057;-66
2022/06/16 04:06:38;;;;;;;0.93;0.20;;;19.80;98.30;;;;;;5013347;28;20026;-66
2022/06/16 04:09:06;;;;;;;3.03;0.60;;;19.80;97.70;;;;;;5013612;28;20073;-66
2022/06/16 04:11:33;;;;;;;1.08;0.28;;;19.60;98.10;;;;;;5013283;28;20073;-66
2022/06/16 04:14:07;;;;;;;2.08;0.35;;;19.20;98.50;;;;;;5013716;28;20037;-66
2022/06/16 04:16:40;;;;;;;0.30;0.20;;;19.20;98.80;;;;;;5000585;28;20036;-66
2022/06/16 04:19:10;;;;;;;1.17;0.25;;;19.10;98.60;;;;;;5024601;28;20076;-66
2022/06/16 04:21:39;;;;;;;1.95;0.22;;;19.10;98.80;;;;;;5022005;28;20087;-65
2022/06/16 04:24:07;;;;;;;2.30;0.50;;;19.40;99.00;;;;;;5023483;28;20035;-65
2022/06/16 04:26:38;;;;;;;3.42;0.40;;;19.30;98.60;;;;;;5030940;28;20037;-65
2022/06/16 04:29:08;;;;;;;5.30;0.98;;;19.20;98.80;;;;;;5031353;28;20052;-66
2022/06/16 04:31:35;;;;;;;3.08;0.50;;;19.10;98.70;;;;;;5028212;28;20428;-65
2022/06/16 04:34:03;;;;;;;1.30;0.22;;;19.20;99.20;;;;;;5025851;28;20494;-65
2022/06/16 04:36:31;;;;;;;3.78;0.63;;;19.00;99.00;;;;;;5023323;28;20080;-65
2022/06/16 04:39:00;;;;;;;3.22;0.50;;;19.00;99.30;;;;;;5022059;28;20025;-65
2022/06/16 04:41:27;;;;;;;4.75;0.50;;;19.20;99.50;;;;;;5026301;28;20478;-66
2022/06/16 04:43:55;;;;;;;3.50;0.65;;;19.40;98.90;;;;;;5017880;28;20022;-65
2022/06/16 04:46:32;;;;;;;1.40;0.30;;;19.40;98.40;;;;;;5016557;28;20022;-65
2022/06/16 04:48:59;;;;;;;1.88;0.30;;;19.60;98.70;;;;;;5025710;28;20069;-65
2022/06/16 04:51:26;;;;;;;1.33;0.22;;;19.50;98.50;;;;;;5020790;28;20025;-65
2022/06/16 04:53:53;;;;;;;0.80;0.30;;;19.70;99.00;;;;;;5018837;28;20384;-65
2022/06/16 04:56:21;;;;;;;2.55;0.30;;;19.90;98.90;;;;;;5022092;28;20088;-65
2022/06/16 04:58:48;;;;;;;3.67;0.30;;;19.80;98.40;;;;;;5024773;28;20013;-65
2022/06/16 05:01:15;;;;;;;2.97;0.32;;;19.90;98.20;;;;;;5013227;28;20086;-65
2022/06/16 05:03:43;;;;;;;2.60;0.20;;;19.80;98.50;;;;;;5018280;28;20053;-65
2022/06/16 05:06:10;;;;;;;0.70;0.20;;;19.90;98.50;;;;;;5026061;28;20398;-65
2022/06/16 05:08:37;;;;;;;2.50;0.40;;;19.90;98.10;;;;;;5014908;28;20037;-65
2022/06/16 05:11:05;;;;;;;0.77;0.20;;;19.80;98.00;;;;;;5019834;28;20025;-66
2022/06/16 05:13:32;;;;;;;1.65;0.30;;;19.80;98.10;;;;;;5020968;28;20021;-65
2022/06/16 05:15:59;;;;;;;2.20;0.20;;;19.70;98.00;;;;;;5027724;28;20084;-65
2022/06/16 05:18:26;;;;;;;0.32;0.17;;;19.40;98.20;;;;;;5021531;28;20386;-66
2022/06/16 05:21:04;;;;;;;0.95;0.28;;;19.20;98.20;;;;;;5017198;28;20021;-66
2022/06/16 05:23:31;;;;;;;2.05;0.30;;;19.10;98.70;;;;;;5023099;28;20403;-66
2022/06/16 05:25:58;;;;;;;3.05;0.20;;;19.10;98.50;;;;;;5018112;28;20029;-66
2022/06/16 05:28:26;;;;;;;2.20;0.28;;;19.00;98.70;;;;;;5015132;28;20041;-66
2022/06/16 05:30:53;;;;;;;2.22;0.28;;;19.00;98.80;;;;;;5014106;28;20029;-66
2022/06/16 05:33:21;;;;;;;2.22;0.30;;;19.00;99.40;;;;;;5030400;28;20025;-66
2022/06/16 05:35:59;;;;;;;1.40;0.20;;;19.00;99.00;;;;;;5033625;28;20048;-66
2022/06/16 05:38:27;;;;;;;1.95;0.45;;;19.00;99.00;;;;;;5038455;28;20017;-67
2022/06/16 05:41:03;;;;;;;2.00;0.30;;;19.00;99.00;;;;;;5036786;28;20156;-68
2022/06/16 05:43:31;;;;;;;2.17;0.20;;;19.00;99.30;;;;;;5033395;28;20016;-67
2022/06/16 05:45:59;;;;;;;3.65;0.30;;;19.00;99.20;;;;;;5040699;28;20381;-67
2022/06/16 05:48:28;;;;;;;3.50;0.40;;;19.00;99.00;;;;;;5052102;28;20036;-68
2022/06/16 05:50:55;;;;;;;1.30;0.20;;;18.90;99.30;;;;;;5038004;28;20402;-68
2022/06/16 05:53:23;;;;;;;3.33;0.25;;;18.80;99.30;;;;;;5034648;28;20448;-67
2022/06/16 05:55:51;;;;;;;0.93;0.22;;;18.80;99.10;;;;;;5027758;28;20832;-68
2022/06/16 05:58:18;;;;;;;1.02;0.10;;;18.80;99.40;;;;;;5034451;28;20025;-67
2022/06/16 06:00:46;;;;;;;0.43;0.20;;;18.80;99.40;;;;;;5029039;28;20028;-67
2022/06/16 06:03:13;;;;;;;0.73;0.20;;;18.70;99.70;;;;;;5039212;28;20061;-67
2022/06/16 06:05:41;;;;;;;2.28;0.40;;;18.60;99.60;;;;;;5026471;28;20410;-67
2022/06/16 06:16:37;;;;;;;2.15;0.30;;;18.50;99.90;;;;;;5026515;28;20044;-67
2022/06/16 06:19:31;;;;;;;1.13;0.20;;;18.50;99.90;;;;;;5047789;28;20033;-66
2022/06/16 06:22:03;;;;;;;2.72;0.10;;;18.40;99.90;;;;;;5047988;28;20020;-66
2022/06/16 06:24:53;;;;;;;1.08;0.30;;;18.40;99.90;;;;;;5058591;28;20034;-67
2022/06/16 06:27:44;;;;;;;1.25;0.30;;;18.40;99.80;;;;;;5049858;28;20085;-66
2022/06/16 06:30:18;;;;;;;1.83;0.30;;;18.40;99.90;;;;;;5046152;28;20072;-66
2022/06/16 06:32:46;;;;;;;0.75;0.10;;;18.20;99.90;;;;;;5043833;28;20044;-67
2022/06/16 06:35:15;;;;;;;0.73;0.20;;;18.10;99.90;;;;;;5052575;28;20018;-68
2022/06/16 06:37:44;;;;;;;1.23;0.28;;;18.00;99.90;;;;;;5044110;28;20349;-66
2022/06/16 06:40:19;;;;;;;1.73;0.40;;;18.00;99.90;;;;;;5049229;28;20032;-66
2022/06/16 06:42:46;;;;;;;1.75;0.47;;;17.90;99.90;;;;;;5043557;28;20022;-66
2022/06/16 06:45:14;;;;;;;6.85;1.02;;;17.90;99.90;;;;;;5041076;28;20021;-66
2022/06/16 06:47:41;;;;;;;1.88;0.63;;;17.80;99.90;;;;;;5027028;28;20477;-67
2022/06/16 06:50:14;;;;;;;0.95;0.40;;;17.80;99.90;;;;;;5029252;28;20029;-66
2022/06/16 06:52:41;;;;;;;3.42;0.43;;;17.70;99.90;;;;;;5027702;28;20493;-66
2022/06/16 06:55:08;;;;;;;1.73;0.50;;;17.60;99.90;;;;;;5041381;28;20132;-67
2022/06/16 06:57:36;;;;;;;1.73;0.30;;;17.50;99.90;;;;;;5029899;28;20045;-66
2022/06/16 07:00:05;;;;;;;0.82;0.35;;;17.50;99.90;;;;;;5033248;28;20113;-67
2022/06/16 07:02:32;;;;;;;1.33;0.20;;;17.50;99.90;;;;;;5031545;28;20439;-67
2022/06/16 07:04:59;;;;;;;2.30;0.32;;;17.40;99.90;;;;;;5016250;28;20036;-67
2022/06/16 07:07:26;;;;;;;1.58;0.35;;;17.30;99.90;;;;;;5017027;28;20479;-66
2022/06/16 07:09:54;;;;;;;2.58;0.30;;;17.30;99.90;;;;;;5022483;28;20041;-67
2022/06/16 07:12:21;;;;;;;1.92;0.52;;;17.20;99.90;;;;;;5020250;28;20083;-67
2022/06/16 07:14:50;;;;;;;2.92;1.23;;;17.20;99.90;;;;;;5025203;28;20672;-67
2022/06/16 07:17:22;;;;;;;2.38;1.20;;;17.10;99.90;;;;;;5021069;28;20030;-68
2022/06/16 07:19:50;;;;;;;2.33;0.88;;;17.10;99.90;;;;;;5023693;28;20509;-67
2022/06/16 07:22:18;;;;;;;4.90;1.83;;;17.00;99.90;;;;;;5020993;28;20624;-67
2022/06/16 07:24:46;;;;;;;1.80;0.77;;;16.90;99.90;;;;;;5025183;28;20033;-68
2022/06/16 07:27:13;;;;;;;1.77;0.90;;;16.90;99.90;;;;;;5019102;28;20072;-67
2022/06/16 07:29:40;;;;;;;1.80;0.45;;;16.90;99.90;;;;;;5025140;28;20100;-67
2022/06/16 07:32:08;;;;;;;1.95;0.55;;;16.80;99.90;;;;;;5019412;28;20483;-68
2022/06/16 07:34:36;;;;;;;2.40;0.63;;;16.80;99.90;;;;;;5031020;28;20390;-67
2022/06/16 07:37:03;;;;;;;1.88;0.43;;;16.70;99.90;;;;;;5027579;28;20025;-67
2022/06/16 07:39:31;;;;;;;3.08;0.88;;;16.70;99.90;;;;;;5029779;28;20097;-67
2022/06/16 07:41:58;;;;;;;2.50;1.27;;;16.60;99.90;;;;;;5030925;28;20047;-67
2022/06/16 07:44:25;;;;;;;3.25;0.65;;;16.60;99.90;;;;;;5022847;28;20064;-68
2022/06/16 07:46:53;;;;;;;1.65;1.00;;;16.50;99.90;;;;;;5027985;28;20087;-67
2022/06/16 07:49:26;;;;;;;3.80;0.82;;;16.50;99.90;;;;;;5045746;28;20128;-67
2022/06/16 07:51:54;;;;;;;2.35;0.60;;;16.40;99.90;;;;;;5033458;28;20100;-68
2022/06/16 07:54:23;;;;;;;0.60;0.30;;;16.50;99.90;;;;;;5035151;28;20385;-67
2022/06/16 07:56:51;;;;;;;3.80;0.50;;;16.40;99.90;;;;;;5031803;28;20028;-68
2022/06/16 07:59:18;;;;;;;2.83;1.20;;;16.50;99.90;;;;;;5036306;28;20038;-68
2022/06/16 08:01:46;;;;;;;2.30;0.90;;;16.40;99.90;;;;;;5018151;28;20045;-67
2022/06/16 08:04:13;;;;;;;1.67;0.47;;;16.30;99.90;;;;;;5030482;28;20026;-68
2022/06/16 08:06:40;;;;;;;2.67;1.80;;;16.20;99.90;;;;;;5023491;28;20033;-67
2022/06/16 08:09:10;;;;;;;2.95;1.27;;;16.20;99.90;;;;;;5017436;28;20064;-67
2022/06/16 08:14:24;;;;;;;1.65;1.10;;;16.20;99.90;;;;;;5041967;28;20389;-67
2022/06/16 08:16:52;;;;;;;1.35;0.70;;;16.10;99.90;;;;;;5022895;28;20029;-67
2022/06/16 08:19:19;;;;;;;2.17;0.85;;;16.10;99.90;;;;;;5034794;28;20033;-67
2022/06/16 08:21:46;;;;;;;3.58;1.08;;;16.00;99.90;;;;;;5036032;28;20033;-67
2022/06/16 08:24:14;;;;;;;2.00;0.88;;;16.00;99.90;;;;;;5032949;28;20478;-68
2022/06/16 08:26:42;;;;;;;2.60;0.70;;;15.90;99.90;;;;;;5017357;28;20083;-67
2022/06/16 08:29:12;;;;;;;1.95;0.52;;;15.90;99.90;;;;;;5028600;28;20051;-68
2022/06/16 08:31:40;;;;;;;1.40;0.40;;;15.80;99.90;;;;;;5030935;28;20053;-67
2022/06/16 08:34:08;;;;;;;4.75;0.95;;;15.90;99.90;;;;;;5029989;28;20025;-67
2022/06/16 08:36:35;;;;;;;8.27;5.38;;;15.80;99.90;;;;;;5039962;28;20029;-67
2022/06/16 08:39:05;;;;;;;4.82;2.58;;;15.80;99.90;;;;;;5039720;28;20032;-67
2022/06/16 08:41:38;;;;;;;3.00;2.10;;;15.80;99.90;;;;;;5025441;28;20022;-67
2022/06/16 08:44:13;;;;;;;2.95;0.80;;;15.70;99.90;;;;;;5028768;28;20032;-67
2022/06/16 08:46:54;;;;;;;5.78;4.28;;;15.60;99.90;;;;;;5028098;28;20030;-68
2022/06/16 08:49:27;;;;;;;4.90;2.58;;;15.70;99.90;;;;;;5042647;28;20400;-67
2022/06/16 08:52:17;;;;;;;2.08;1.00;;;15.60;99.90;;;;;;5041366;28;20021;-67
2022/06/16 08:54:45;;;;;;;2.03;1.23;;;15.60;99.90;;;;;;5035677;28;20590;-67
2022/06/16 08:57:42;;;;;;;8.38;3.55;;;15.60;99.90;;;;;;5024660;28;20470;-67
2022/06/16 09:00:15;;;;;;;6.65;4.38;;;15.50;99.90;;;;;;5017603;28;20083;-68
2022/06/16 09:02:50;;;;;;;6.47;3.90;;;15.50;99.90;;;;;;5025129;28;20060;-68
2022/06/16 09:05:16;;;;;;;;;;;15.50;99.90;;;;;;5030554;28;20512;-68
2022/06/16 09:07:54;;;;;;;2.47;1.25;;;15.50;99.90;;;;;;5033073;28;19909;-67
2022/06/16 09:10:30;;;;;;;5.93;2.58;;;15.40;99.90;;;;;;5014058;28;20069;-68
2022/06/16 09:13:09;;;;;;;7.43;5.55;;;15.30;99.90;;;;;;5029972;28;20619;-68
2022/06/16 09:16:05;;;;;;;12.48;8.55;;;15.30;99.90;;;;;;5040065;28;20046;-68
2022/06/16 09:18:45;;;;;;;4.65;2.35;;;15.30;99.90;;;;;;5050283;28;20136;-67
2022/06/16 09:21:49;;;;;;;3.88;1.00;;;15.20;99.90;;;;;;5043895;28;20017;-68
2022/06/16 09:24:34;;;;;;;2.17;0.70;;;15.20;99.90;;;;;;5022216;28;20440;-67
2022/06/16 09:27:11;;;;;;;2.65;0.50;;;15.10;99.90;;;;;;5036254;28;20040;-68
2022/06/16 09:29:42;;;;;;;2.08;0.60;;;15.10;99.90;;;;;;5039682;28;20029;-67
2022/06/16 09:32:38;;;;;;;3.30;0.52;;;15.10;99.90;;;;;;5049252;28;20091;-67
2022/06/16 09:35:32;;;;;;;1.30;0.50;;;15.00;99.90;;;;;;5044759;28;20029;-67
2022/06/16 09:38:02;;;;;;;1.67;0.65;;;15.00;99.90;;;;;;5033014;28;20045;-67
2022/06/16 09:40:44;;;;;;;3.00;0.50;;;14.90;99.90;;;;;;5044112;28;20017;-67
2022/06/16 09:43:21;;;;;;;2.15;0.47;;;14.80;99.90;;;;;;5021295;28;20405;-68
2022/06/16 09:45:57;;;;;;;7.47;0.57;;;14.90;99.90;;;;;;5034819;28;20017;-68
2022/06/16 09:48:43;;;;;;;4.30;0.90;;;14.90;99.90;;;;;;5032260;28;20386;-68
2022/06/16 09:51:17;;;;;;;2.05;0.43;;;14.80;99.90;;;;;;5042677;28;20020;-68
2022/06/16 09:53:54;;;;;;;2.95;0.98;;;14.90;99.90;;;;;;5031383;28;20124;-67
2022/06/16 09:56:21;;;;;;;2.10;1.20;;;14.80;99.90;;;;;;5026281;28;20129;-66
2022/06/16 09:58:53;;;;;;;2.35;1.13;;;14.80;99.90;;;;;;5028716;28;20034;-67
2022/06/16 10:01:24;;;;;;;2.20;0.80;;;14.80;99.90;;;;;;5026957;28;20079;-67
2022/06/16 10:04:01;;;;;;;2.65;1.25;;;14.80;99.90;;;;;;5035307;28;20029;-67
2022/06/16 10:06:36;;;;;;;3.85;0.90;;;14.60;99.90;;;;;;5015726;28;20026;-67
2022/06/16 10:09:03;;;;;;;;;;;14.50;99.90;;;;;;5041448;28;20474;-66
2022/06/16 10:11:49;;;;;;;5.80;2.40;;;14.50;99.90;;;;;;5039119;28;19909;-67
2022/06/16 10:14:42;;;;;;;4.07;1.67;;;14.40;99.90;;;;;;5014910;28;20030;-67
2022/06/16 10:17:13;;;;;;;3.33;1.20;;;14.30;99.90;;;;;;5015718;28;20073;-67
2022/06/16 10:19:44;;;;;;;2.97;0.90;;;14.20;99.90;;;;;;5031047;28;20033;-67
2022/06/16 10:22:19;;;;;;;3.15;1.30;;;14.20;99.90;;;;;;5027570;28;20026;-67
2022/06/16 10:25:09;;;;;;;3.30;1.50;;;14.20;99.90;;;;;;5034154;28;20029;-67
2022/06/16 10:27:45;;;;;;;1.70;1.10;;;14.10;99.90;;;;;;5025571;28;20029;-66
2022/06/16 10:30:23;;;;;;;2.72;0.98;;;14.10;99.90;;;;;;5044674;28;20041;-66
2022/06/16 10:33:00;;;;;;;2.20;1.10;;;14.00;99.90;;;;;;5031039;28;20072;-67
2022/06/16 10:35:28;;;;;;;7.30;1.25;;;14.10;99.90;;;;;;5030062;28;20033;-66
2022/06/16 10:37:56;;;;;;;1.55;0.80;;;14.00;99.90;;;;;;5047267;28;20505;-67
2022/06/16 10:40:36;;;;;;;3.35;0.90;;;14.10;99.90;;;;;;5029582;28;20418;-66
2022/06/16 10:43:18;;;;;;;4.18;0.70;;;13.90;99.90;;;;;;5021250;28;20104;-67
2022/06/16 10:46:07;;;;;;;1.38;0.60;;;14.00;99.90;;;;;;5031211;28;20095;-67
2022/06/16 10:48:38;;;;;;;7.40;1.63;;;14.00;99.90;;;;;;5017659;28;20051;-66
2022/06/16 10:51:20;;;;;;;1.77;1.08;;;14.00;99.90;;;;;;5037879;28;20112;-67
2022/06/16 10:54:02;;;;;;;3.20;2.00;;;14.00;99.90;;;;;;5032424;28;20037;-67
2022/06/16 10:56:30;;;;;;;3.20;2.10;;;13.90;99.90;;;;;;5044697;28;20102;-67
2022/06/16 10:59:25;;;;;;;2.25;0.82;;;13.90;99.90;;;;;;5045922;28;20053;-67
2022/06/16 11:02:02;;;;;;;1.63;0.60;;;13.90;99.90;;;;;;5021673;28;20041;-66
2022/06/16 11:04:38;;;;;;;2.25;0.80;;;13.90;99.90;;;;;;5038170;28;20062;-67
2022/06/16 11:07:10;;;;;;;1.67;0.63;;;13.90;99.90;;;;;;5029473;28;20017;-66
2022/06/16 11:09:41;;;;;;;2.30;0.70;;;14.00;99.90;;;;;;5037639;28;20030;-67
2022/06/16 11:12:19;;;;;;;4.38;1.00;;;13.90;99.90;;;;;;5038686;28;20062;-66
2022/06/16 11:14:56;;;;;;;1.88;0.68;;;13.80;99.90;;;;;;5024652;28;20017;-66
2022/06/16 11:17:30;;;;;;;1.23;0.70;;;13.70;99.90;;;;;;5020668;28;20026;-66
2022/06/16 11:20:14;;;;;;;2.30;1.00;;;13.80;99.90;;;;;;5024967;28;20026;-65
2022/06/16 11:22:45;;;;;;;3.97;1.70;;;13.70;99.90;;;;;;5014434;28;20038;-67
2022/06/16 11:25:30;;;;;;;5.93;1.63;;;13.70;99.90;;;;;;5018300;28;20041;-67
2022/06/16 11:28:01;;;;;;;5.68;2.13;;;13.60;99.90;;;;;;5030949;28;20452;-67
2022/06/16 11:30:28;;;;;;;3.85;1.60;;;13.60;99.90;;;;;;5039430;28;20036;-67
2022/06/16 11:32:56;;;;;;;4.28;1.90;;;13.60;99.90;;;;;;5033594;28;20457;-68
2022/06/16 11:35:58;;;;;;;2.80;1.30;;;13.50;99.90;;;;;;5038883;28;20076;-68
2022/06/16 11:38:47;;;;;;;3.08;1.20;;;13.50;99.90;;;;;;5028740;28;20026;-67
2022/06/16 11:41:16;;;;;;;3.53;1.60;;;13.30;99.90;;;;;;5026858;28;20025;-67
2022/06/16 11:43:49;;;;;;;4.15;1.83;;;13.20;99.90;;;;;;5023953;28;20048;-66
2022/06/16 11:46:29;;;;;;;6.95;1.80;;;13.20;99.90;;;;;;5034480;28;20030;-67
2022/06/16 11:49:33;;;;;;;4.72;1.63;;;13.20;99.90;;;;;;5027574;28;20041;-67
2022/06/16 11:52:24;;;;;;;2.85;1.55;;;13.00;99.90;;;;;;5024775;28;20038;-67
2022/06/16 11:55:36;;;;;;;2.53;1.35;;;13.00;99.90;;;;;;5031708;28;20049;-67
2022/06/16 11:58:14;;;;;;;5.55;1.48;;;12.90;99.90;;;;;;5028735;28;20041;-67
2022/06/16 12:00:58;;;;;;;3.33;1.58;;;12.90;99.90;;;;;;5028255;28;20051;-67
2022/06/16 12:03:48;;;;;;;3.15;1.33;;;12.90;99.90;;;;;;5025776;28;20548;-67
2022/06/16 12:06:21;;;;;;;4.93;1.30;;;12.80;99.90;;;;;;5024560;28;20029;-67
2022/06/16 12:09:25;;;;;;;6.23;2.07;;;12.90;99.90;;;;;;5029828;28;20033;-67
2022/06/16 12:12:23;;;;;;;3.78;1.70;;;12.90;99.90;;;;;;5022963;28;20155;-67
2022/06/16 12:15:23;;;;;;;4.30;1.77;;;12.90;99.90;;;;;;5040430;28;20022;-67
2022/06/16 12:18:08;;;;;;;4.00;1.85;;;12.80;99.90;;;;;;5034994;28;20029;-66
2022/06/16 12:20:56;;;;;;;4.95;1.60;;;12.80;99.90;;;;;;5035944;28;20033;-66
2022/06/16 12:23:43;;;;;;;4.70;1.67;;;12.90;99.90;;;;;;5034619;28;20032;-67
2022/06/16 12:26:10;;;;;;;5.95;1.85;;;12.90;99.90;;;;;;5034172;28;20030;-66
2022/06/16 12:29:02;;;;;;;6.88;2.08;;;12.90;99.90;;;;;;5035696;28;20037;-66
2022/06/16 12:32:05;;;;;;;5.45;2.10;;;12.80;99.90;;;;;;5042559;28;20048;-67
2022/06/16 12:34:49;;;;;;;8.10;2.63;;;12.70;99.90;;;;;;5034960;28;20159;-67
2022/06/16 12:37:22;;;;;;;5.97;2.35;;;12.60;99.90;;;;;;5028095;28;20025;-66
2022/06/16 12:40:10;;;;;;;3.85;2.10;;;12.40;99.90;;;;;;5052906;28;20029;-66
2022/06/16 12:42:52;;;;;;;5.68;2.00;;;12.40;99.90;;;;;;5028413;28;20586;-67
2022/06/16 12:45:25;;;;;;;3.55;2.22;;;12.30;99.90;;;;;;5022957;28;20565;-66
2022/06/16 12:48:01;;;;;;;6.32;2.85;;;12.40;99.90;;;;;;5026245;28;20072;-66
2022/06/16 12:50:49;;;;;;;4.43;2.63;;;12.50;99.90;;;;;;5025222;28;20102;-67
2022/06/16 12:53:28;;;;;;;3.83;1.92;;;12.40;99.90;;;;;;5028911;28;20022;-66
2022/06/16 12:56:07;;;;;;;4.70;2.03;;;12.30;99.90;;;;;;5022613;28;20025;-67
2022/06/16 12:58:58;;;;;;;6.60;2.35;;;12.30;99.90;;;;;;5016370;28;20026;-67
2022/06/16 13:01:25;;;;;;;3.50;2.13;;;12.30;99.90;;;;;;5022195;28;20035;-67
2022/06/16 13:04:06;;;;;;;4.80;2.13;;;12.30;99.90;;;;;;5026157;28;20029;-67
2022/06/16 13:06:36;;;;;;;5.43;1.95;;;12.20;99.90;;;;;;5030749;28;20026;-66
2022/06/16 13:09:06;;;;;;;4.82;1.92;;;12.20;99.90;;;;;;5029320;28;20478;-66
2022/06/16 13:11:49;;;;;;;4.80;1.52;;;12.30;99.90;;;;;;5030372;28;20071;-66
2022/06/16 13:14:28;;;;;;;4.05;2.20;;;12.30;99.90;;;;;;5041669;28;20041;-67
2022/06/16 13:16:59;;;;;;;4.97;1.92;;;12.30;99.90;;;;;;5022404;28;20030;-66
2022/06/16 13:19:32;;;;;;;4.57;2.45;;;12.20;99.90;;;;;;5036464;28;20029;-66
2022/06/16 13:22:04;;;;;;;5.60;1.85;;;12.30;99.90;;;;;;5043157;28;20539;-66
2022/06/16 13:24:52;;;;;;;5.75;1.92;;;12.10;99.90;;;;;;5040851;28;20543;-66
2022/06/16 13:27:37;;;;;;;5.60;1.98;;;12.10;99.90;;;;;;5027187;28;20057;-67
2022/06/16 13:30:08;;;;;;;6.47;2.22;;;12.00;99.90;;;;;;5020613;28;20037;-66
2022/06/16 13:32:50;;;;;;;4.28;1.77;;;11.90;99.90;;;;;;5030302;28;20101;-66
2022/06/16 13:35:23;;;;;;;6.45;2.25;;;12.00;99.90;;;;;;5027154;28;20113;-66
2022/06/16 13:38:12;;;;;;;6.82;2.22;;;12.00;99.90;;;;;;5033704;28;20523;-66
2022/06/16 13:40:41;;;;;;;6.95;2.10;;;12.00;99.90;;;;;;5030465;28;20169;-66
2022/06/16 13:43:19;;;;;;;5.53;2.00;;;12.10;99.90;;;;;;5037378;28;20044;-67